LESTLPPR

Guest
Details From LEST - Santiago
To LPPR - Porto
Flight Number -
Tags generated
Created
Modified
Stats Distance 100 nm / 185 km
Max Altitude 10,600 ft / 3,231 m
Waypoints 3
Social Downloads 3
Likes 0
Share VATSIM

Download

Looking for another format? Having issues loading an existing format? Contact us
Advertisement - Login to hide

Notes

Basic altitude profile: - Ascent Rate: 2500ft/min - Ascent Speed: 250kts - Cruise Altitude: 200ft - Cruise Speed: 420kts - Descent Rate: 1500ft/min - Descent Speed: 250kts Options: - Use NATs: yes - Use PACOTS: yes - Use low airways: no - Use high airways: yes

Route

LEST TURON LPPR

ID Type Via Altitude Latitude Longitude Leg Dist Tot Dist Heading (true) Name
O LEST APT - 0 ft / 0 m 42.89780˚ -8.41569˚ - 0 nm - Santiago
TURON FIX - 10,600 ft / 3,231 m 42.06792˚ -8.56342˚ 50 nm 50 nm 188° / 187° -
O LPPR APT - 0 ft / 0 m 41.24793˚ -8.68122˚ 49 nm 99 nm 186° / 186° Porto

Altitude Profile

Advertisement - Login to hide

LEST

Details ICAO LEST (SCQ)
Name Santiago
Region Spain
Timezone Europe/Madrid (UTC+1.0)
Stats Elevation 1,169 ft / 356 m (AMSL)
Location 42.897797° -8.415691°
Runways 1
Magnetic Variation 2.372° W

METAR

LEST 121830Z 20004KT 160V240 5000 BR SCT012 BKN034 08/07 Q1022 NOSIG

Decode

TAF

TAF TAF LEST 121700Z 1218/1318 23007KT 9999 SCT020 TX12/1314Z TN06/1307Z TEMPO 1300/1312 BKN010 TEMPO 1300/1312 1500 -RADZ BR BKN002 PROB40 TEMPO 1300/1312 0300 -RADZ BCFG BKN001 TEMPO 1312/1318 23015G25KT TEMPO 1312/1318 3000 RA BR BKN008 PROB40 TEMPO 1312/1318 1500 RA BCFG BKN004

Decode

Departure Runways

ID Width Length Bearing (true) Bearing (mag) Surface Threshold Offset Overrun Length
17 148 ft / 45 m 10,509 ft / 3,203 m 166.04° 168.41° Asphalt 394 ft / 120 m 0 ft / 0 m
35 148 ft / 45 m 10,509 ft / 3,203 m 346.05° 348.42° Asphalt 0 ft / 0 m 197 ft / 60 m

LPPR

Details ICAO LPPR (OPO)
Name Porto
Region Portugal
Timezone Europe/Lisbon (UTC+0.0)
Stats Elevation 228 ft / 69 m (AMSL)
Location 41.247932° -8.681221°
Runways 1
Magnetic Variation 2.340° W

METAR

LPPR 121830Z 18001KT 9999 FEW048 07/06 Q1023

Decode

TAF

TAF LPPR 121700Z 1218/1318 23005KT 9999 FEW035 BECMG 1218/1220 13005KT BKN035 BECMG 1302/1304 16008KT PROB30 TEMPO 1302/1312 5000 DZ BR SCT004 BKN008 BECMG 1314/1317 18013KT SCT008 BKN018

Decode

Destination Runways

ID Width Length Bearing (true) Bearing (mag) Surface Threshold Offset Overrun Length
17 148 ft / 45 m 11,451 ft / 3,490 m 168.88° 171.22° Asphalt 984 ft / 300 m 220 ft / 67 m
35 148 ft / 45 m 11,451 ft / 3,490 m 348.89° 351.23° Asphalt 492 ft / 150 m 370 ft / 113 m

Approach Navaids

Runway Type Ident Frequency Range Bearing (true) Bearing (mag) Slope Elevation
17 Localiser PR 109.90 MHz 18 nm / 33 km 168.87° 171.21° - 228 ft / 69 m (AMSL)
17 Glidescope PR 109.90 MHz 10 nm / 19 km 168.88° 171.22° 2.72° 228 ft / 69 m (AMSL)
17 DME PR 109.90 MHz 18 nm / 33 km - - - 228 ft / 69 m (AMSL)

Popular Alternatives